Time;durP1;ratioP1;P1;durP2;ratioP2;P2;SDS_P1;SDS_P2;PMS_P1;PMS_P2;Temp;Humidity;BMP_temperature;BMP_pressure;BME280_temperature;BME280_humidity;BME280_pressure;Samples;Min_cycle;Max_cycle;Signal;HPM_P1;HPM_P2
2022/09/20 00:00:48;;;;;;;;;1.00;1.00;;;;;15.18;47.87;101774.69;5015022;28;45398;-57
2022/09/20 00:03:14;;;;;;;;;2.00;1.00;;;;;15.12;47.97;101778.34;5015202;28;45375;-58
2022/09/20 00:05:41;;;;;;;;;1.60;1.60;;;;;15.17;48.25;101778.50;5015106;28;45453;-58
2022/09/20 00:08:09;;;;;;;;;2.00;2.00;;;;;15.09;47.67;101764.09;4997351;28;45777;-58
2022/09/20 00:10:38;;;;;;;;;1.80;1.00;;;;;15.22;48.23;101775.09;4997300;28;45577;-58
2022/09/20 00:13:07;;;;;;;;;3.00;1.00;;;;;15.19;48.21;101781.06;5014870;28;45390;-58
2022/09/20 00:15:33;;;;;;;;;1.40;1.40;;;;;15.03;47.90;101752.81;5015259;28;45506;-58
2022/09/20 00:17:58;;;;;;;;;1.80;1.80;;;;;15.21;48.22;101789.97;5014754;28;46281;-57
2022/09/20 00:20:24;;;;;;;;;2.00;2.00;;;;;15.21;48.36;101781.69;5014890;28;45496;-58
2022/09/20 00:22:49;;;;;;;;;3.25;2.25;;;;;15.18;47.75;101790.44;4997275;28;45395;-60
2022/09/20 00:25:16;;;;;;;;;3.00;2.00;;;;;15.17;48.04;101783.19;4993620;28;45324;-58
2022/09/20 00:27:41;;;;;;;;;2.00;2.00;;;;;15.16;48.18;101776.81;4993359;28;46262;-59
2022/09/20 00:30:08;;;;;;;;;1.50;1.50;;;;;15.10;48.51;101771.31;4993551;28;45471;-58
2022/09/20 00:32:33;;;;;;;;;3.00;2.00;;;;;15.11;48.05;101778.53;4960975;28;45808;-58
2022/09/20 00:35:08;;;;;;;;;2.50;2.00;;;;;15.02;48.50;101777.91;4995057;28;45523;-58
2022/09/20 00:37:34;;;;;;;;;3.00;2.00;;;;;15.03;48.15;101779.63;4994007;28;45464;-57
2022/09/20 00:40:00;;;;;;;;;1.50;1.00;;;;;14.99;48.25;101767.31;4998262;28;45569;-57
2022/09/20 00:42:27;;;;;;;;;2.00;2.00;;;;;15.01;48.28;101774.28;4996923;28;45442;-59
2022/09/20 00:45:05;;;;;;;;;2.20;2.20;;;;;14.99;48.83;101773.66;4996877;28;45416;-58
2022/09/20 00:47:35;;;;;;;;;3.20;2.00;;;;;14.95;48.76;101764.13;4997970;28;46110;-58
2022/09/20 00:50:24;;;;;;;;;2.40;2.40;;;;;14.96;48.58;101767.72;4996825;28;45512;-58
2022/09/20 00:52:53;;;;;;;;;1.20;1.20;;;;;14.83;48.24;101747.34;4987466;28;45322;-58
2022/09/20 00:55:18;;;;;;;;;2.80;1.80;;;;;14.96;48.73;101763.06;4998349;28;45412;-58
2022/09/20 00:57:44;;;;;;;;;2.00;2.00;;;;;14.87;49.26;101767.97;4996349;28;46609;-57
2022/09/20 01:00:10;;;;;;;;;2.00;2.00;;;;;14.86;48.73;101774.56;4997885;28;45279;-56
2022/09/20 01:02:38;;;;;;;;;2.20;1.00;;;;;14.88;48.95;101775.19;4997027;28;45446;-58
2022/09/20 01:05:04;;;;;;;;;3.20;3.20;;;;;14.82;48.73;101759.47;4997064;28;45534;-56
2022/09/20 01:07:30;;;;;;;;;1.75;1.75;;;;;14.86;48.92;101765.41;4997374;28;46139;-56
2022/09/20 01:09:55;;;;;;;;;3.00;1.00;;;;;14.66;48.95;101749.69;4997697;28;45803;-57
2022/09/20 01:12:24;;;;;;;;;3.50;3.00;;;;;14.84;48.92;101773.06;4997776;28;45370;-57
2022/09/20 01:14:50;;;;;;;;;2.00;2.00;;;;;14.52;49.53;101715.72;4996777;28;45641;-58
2022/09/20 01:17:18;;;;;;;;;2.00;2.00;;;;;14.86;48.85;101766.28;4996139;28;45445;-58
2022/09/20 01:20:00;;;;;;;;;2.60;2.60;;;;;14.86;48.96;101770.94;4996300;28;45834;-58
2022/09/20 01:23:12;;;;;;;;;2.60;1.80;;;;;14.86;49.21;101766.28;4997639;28;45415;-57
2022/09/20 01:25:46;;;;;;;;;3.00;2.00;;;;;14.85;49.64;101767.34;4917169;28;45620;-58
2022/09/20 01:28:11;;;;;;;;;1.20;1.20;;;;;14.54;50.01;101730.16;4901842;28;46478;-58
2022/09/20 01:30:50;;;;;;;;;6.00;4.25;;;;;14.76;49.60;101757.56;4958765;28;45299;-58
2022/09/20 01:33:36;;;;;;;;;3.00;3.00;;;;;14.77;49.95;101762.03;4960219;28;45854;-57
2022/09/20 01:36:03;;;;;;;;;2.00;2.00;;;;;14.76;49.64;101763.09;4997758;28;45411;-56
2022/09/20 01:38:52;;;;;;;;;4.00;3.00;;;;;14.74;50.22;101756.94;4979600;28;46668;-57
2022/09/20 01:41:31;;;;;;;;;3.80;3.80;;;;;14.63;50.11;101748.19;4996327;28;45400;-57
2022/09/20 01:44:09;;;;;;;;;1.60;1.60;;;;;14.43;50.27;101725.28;4996151;28;45382;-57
2022/09/20 01:46:35;;;;;;;;;4.40;2.20;;;;;14.31;49.89;101703.81;4997436;28;45466;-57
2022/09/20 01:49:34;;;;;;;;;1.00;1.00;;;;;14.59;50.26;101754.38;4996975;28;46915;-57
2022/09/20 01:52:18;;;;;;;;;2.80;2.00;;;;;14.64;49.89;101752.66;4998861;28;45344;-57
2022/09/20 01:55:14;;;;;;;;;2.60;2.40;;;;;14.68;50.00;101757.75;4997587;28;45282;-58
2022/09/20 01:58:02;;;;;;;;;4.20;3.00;;;;;14.69;49.83;101749.28;4996395;28;45340;-59
2022/09/20 02:00:51;;;;;;;;;2.00;2.00;;;;;14.72;49.90;101753.50;4996886;28;46098;-60
2022/09/20 02:03:20;;;;;;;;;2.40;1.40;;;;;14.72;49.97;101740.53;4981626;28;45780;-58
2022/09/20 02:05:54;;;;;;;;;2.00;2.00;;;;;14.71;50.25;101746.25;4996724;28;45488;-58
2022/09/20 02:08:49;;;;;;;;;3.40;2.20;;;;;14.66;49.82;101738.63;4997197;28;45388;-58
2022/09/20 02:11:16;;;;;;;;;2.00;2.00;;;;;14.55;49.98;101706.13;4986149;28;46158;-58
2022/09/20 02:13:52;;;;;;;;;6.00;2.60;;;;;14.67;49.99;101734.78;4979022;28;45808;-57
2022/09/20 02:16:36;;;;;;;;;4.20;2.20;;;;;14.68;50.39;101733.72;4996539;28;45385;-57
2022/09/20 02:19:04;;;;;;;;;1.40;1.40;;;;;14.64;50.52;101730.53;4995530;28;45342;-58
2022/09/20 02:21:57;;;;;;;;;2.00;2.00;;;;;14.50;50.42;101729.75;4996622;28;46383;-59
2022/09/20 02:24:34;;;;;;;;;5.40;4.20;;;;;14.56;50.26;101746.53;4979766;28;45939;-57
2022/09/20 02:27:18;;;;;;;;;2.00;2.00;;;;;14.54;50.51;101751.41;5016018;28;45327;-58
2022/09/20 02:29:44;;;;;;;;;2.00;2.00;;;;;14.54;50.99;101743.97;5017079;28;45503;-58
2022/09/20 02:32:34;;;;;;;;;1.75;1.75;;;;;14.53;50.78;101747.78;5016443;28;46464;-57
2022/09/20 02:35:17;;;;;;;;;4.40;1.80;;;;;14.24;50.44;101714.03;5016900;28;45346;-60
2022/09/20 02:38:03;;;;;;;;;2.80;1.60;;;;;14.42;51.12;101752.06;4967560;28;45377;-60
2022/09/20 02:40:44;;;;;;;;;2.80;2.00;;;;;14.22;50.94;101729.97;4995764;28;45432;-59
2022/09/20 02:43:34;;;;;;;;;3.20;2.80;;;;;14.31;50.86;101752.69;4978733;28;47784;-59
2022/09/20 02:46:27;;;;;;;;;2.00;2.00;;;;;13.74;50.86;101664.75;4978572;28;45549;-59
2022/09/20 02:49:13;;;;;;;;;0.20;0.20;;;;;14.25;51.48;101757.13;4988733;28;45621;-60
2022/09/20 02:51:39;;;;;;;;;1.60;0.60;;;;;14.26;50.92;101761.63;4956138;28;45545;-59
2022/09/20 02:54:17;;;;;;;;;2.00;2.00;;;;;14.20;50.95;101760.53;4994694;28;47754;-59
2022/09/20 02:57:13;;;;;;;;;3.40;2.00;;;;;14.18;51.37;101753.53;4962788;28;45965;-60
2022/09/20 02:59:44;;;;;;;;;2.20;2.20;;;;;14.21;51.10;101764.16;4988385;28;45399;-59
2022/09/20 03:02:21;;;;;;;;;1.40;1.40;;;;;14.20;51.59;101760.53;4996156;28;45419;-60
2022/09/20 03:05:15;;;;;;;;;2.80;2.40;;;;;14.18;51.52;101759.91;4978548;28;47430;-60
2022/09/20 03:08:05;;;;;;;;;2.40;2.20;;;;;13.65;51.12;101670.47;4996385;28;45350;-62
2022/09/20 03:10:38;;;;;;;;;2.00;1.20;;;;;14.17;51.37;101760.97;4996463;28;45364;-59
2022/09/20 03:13:12;;;;;;;;;2.60;2.60;;;;;14.15;51.36;101762.25;4996345;28;45624;-59
2022/09/20 03:16:15;;;;;;;;;2.20;2.00;;;;;14.13;51.22;101764.38;4978509;28;45931;-60
2022/09/20 03:19:15;;;;;;;;;2.00;2.00;;;;;14.14;51.71;101749.50;4995954;28;45384;-59
2022/09/20 03:22:07;;;;;;;;;2.60;2.60;;;;;14.07;51.66;101744.81;4978451;28;45416;-59
2022/09/20 03:25:02;;;;;;;;;2.40;2.40;;;;;14.09;51.65;101759.25;4979332;28;45604;-59
2022/09/20 03:27:30;;;;;;;;;2.00;2.00;;;;;14.06;52.10;101751.41;4943755;28;46472;-59
2022/09/20 03:30:21;;;;;;;;;3.20;2.00;;;;;14.12;51.41;101755.22;4955527;28;45727;-59
2022/09/20 03:33:11;;;;;;;;;2.00;2.00;;;;;14.09;51.99;101755.66;4955334;28;45596;-59
2022/09/20 03:35:41;;;;;;;;;2.00;1.00;;;;;13.88;51.93;101718.88;4956754;28;45341;-60
2022/09/20 03:38:44;;;;;;;;;2.00;2.00;;;;;14.09;51.63;101762.00;4973551;28;46152;-60
2022/09/20 03:41:40;;;;;;;;;1.20;1.20;;;;;13.95;52.39;101752.88;4976070;28;45331;-59
2022/09/20 03:44:42;;;;;;;;;2.80;2.80;;;;;13.91;51.82;101762.63;4975974;28;45359;-59
2022/09/20 03:47:24;;;;;;;;;3.00;2.60;;;;;13.34;51.95;101660.81;4975230;28;45410;-59
2022/09/20 03:50:18;;;;;;;;;2.00;1.20;;;;;13.73;51.78;101734.78;4974765;28;46705;-60
2022/09/20 03:52:44;;;;;;;;;2.80;2.00;;;;;13.89;51.90;101758.38;4974493;28;45681;-61
2022/09/20 03:55:47;;;;;;;;;2.00;2.00;;;;;13.87;52.48;101761.34;4976248;28;45463;-59
2022/09/20 03:58:39;;;;;;;;;1.20;1.00;;;;;13.67;52.28;101720.75;4976165;28;45324;-58
2022/09/20 04:01:14;;;;;;;;;3.20;1.40;;;;;13.85;51.96;101748.81;4961267;28;46851;-61
2022/09/20 04:03:49;;;;;;;;;3.60;3.00;;;;;13.60;52.38;101721.81;4974537;28;45364;-59
2022/09/20 04:06:33;;;;;;;;;1.60;1.60;;;;;13.79;52.88;101745.00;4976070;28;45803;-59
2022/09/20 04:09:23;;;;;;;;;3.80;2.60;;;;;13.76;52.55;101743.50;4974797;28;45355;-59
2022/09/20 04:12:20;;;;;;;;;2.00;2.00;;;;;13.52;52.34;101706.31;4975324;28;45474;-59
2022/09/20 04:15:02;;;;;;;;;1.60;1.60;;;;;13.75;52.50;101754.72;4959249;28;45370;-60
2022/09/20 04:17:52;;;;;;;;;5.00;3.00;;;;;13.70;52.82;101755.38;4975773;28;45542;-60
2022/09/20 04:20:26;;;;;;;;;2.00;2.00;;;;;13.59;53.00;101729.25;4976057;28;45204;-60
2022/09/20 04:22:52;;;;;;;;;1.60;1.60;;;;;13.19;52.80;101673.94;4974181;28;45794;-59
2022/09/20 04:25:38;;;;;;;;;1.60;1.60;;;;;13.71;52.97;101758.97;4962928;28;45880;-59
2022/09/20 04:28:16;;;;;;;;;3.60;2.40;;;;;13.25;53.34;101678.63;4995011;28;45415;-59
2022/09/20 04:30:45;;;;;;;;;1.80;1.80;;;;;13.74;53.18;101753.03;4977876;28;45504;-59
2022/09/20 04:33:39;;;;;;;;;3.80;2.40;;;;;13.63;53.90;101763.63;4994357;28;46232;-61
2022/09/20 04:36:28;;;;;;;;;5.00;3.40;;;;;13.63;53.33;101758.13;4989995;28;45363;-59
2022/09/20 04:39:33;;;;;;;;;3.40;2.00;;;;;13.55;53.46;101731.56;4994608;28;45391;-59
2022/09/20 04:42:29;;;;;;;;;2.00;2.00;;;;;13.75;53.32;101763.00;4995160;28;45315;-59
2022/09/20 04:45:32;;;;;;;;;6.00;3.00;;;;;13.78;53.43;101760.69;4989292;28;46533;-59
2022/09/20 04:48:36;;;;;;;;;2.80;2.80;;;;;13.75;53.18;101763.88;4994338;28;45343;-59
2022/09/20 04:51:11;;;;;;;;;5.00;4.20;;;;;13.76;53.45;101764.72;4983465;28;45429;-59
2022/09/20 04:53:39;;;;;;;;;4.40;2.60;;;;;13.74;53.53;101764.06;4995231;28;45772;-59
2022/09/20 04:56:09;;;;;;;;;4.20;2.60;;;;;13.57;53.13;101738.78;4994274;28;45437;-58
2022/09/20 04:58:37;;;;;;;;;3.40;1.60;;;;;13.73;53.81;101763.25;4994646;28;45422;-59
2022/09/20 05:01:18;;;;;;;;;3.00;3.00;;;;;13.65;53.82;101779.94;4993182;28;45442;-59
2022/09/20 05:04:21;;;;;;;;;3.20;2.00;;;;;13.68;53.43;101777.63;4994771;28;45497;-59
2022/09/20 05:07:11;;;;;;;;;3.60;2.20;;;;;13.71;53.46;101790.16;4994137;28;46704;-59
2022/09/20 05:09:49;;;;;;;;;3.00;1.40;;;;;13.68;53.59;101779.56;4994490;28;45376;-59
2022/09/20 05:12:27;;;;;;;;;6.00;3.00;;;;;13.69;53.54;101779.34;4993039;28;45439;-58
2022/09/20 05:14:57;;;;;;;;;3.40;3.40;;;;;13.71;53.59;101784.66;4993189;28;45596;-58
2022/09/20 05:17:43;;;;;;;;;2.40;2.00;;;;;13.55;53.55;101769.31;4992924;28;46258;-59
2022/09/20 05:20:29;;;;;;;;;4.20;3.20;;;;;13.62;53.60;101784.00;4992852;28;45405;-59
2022/09/20 05:23:01;;;;;;;;;2.60;2.00;;;;;13.58;53.78;101777.19;4992882;28;45474;-59
2022/09/20 05:26:06;;;;;;;;;2.00;2.00;;;;;13.39;53.86;101749.28;5003997;28;45345;-59
2022/09/20 05:28:48;;;;;;;;;3.20;3.00;;;;;13.48;54.11;101768.44;5002505;28;47606;-60
2022/09/20 05:31:51;;;;;;;;;2.20;2.20;;;;;13.51;53.72;101773.56;4989631;28;45538;-60
2022/09/20 05:34:41;;;;;;;;;5.20;3.00;;;;;13.48;54.17;101772.06;5019314;28;45359;-59
2022/09/20 05:38:04;;;;;;;;;5.20;4.00;;;;;13.46;54.09;101776.06;5013646;28;45486;-59
2022/09/20 05:41:04;;;;;;;;;2.60;2.60;;;;;13.50;53.86;101777.38;4915999;28;46420;-59
2022/09/20 05:43:30;;;;;;;;;5.00;3.40;;;;;13.54;53.94;101778.66;4916996;28;45497;-59
2022/09/20 05:46:32;;;;;;;;;4.20;3.80;;;;;13.55;53.64;101777.59;4973092;28;45492;-60
2022/09/20 05:49:17;;;;;;;;;4.40;4.40;;;;;13.55;53.59;101785.88;4980230;28;45637;-60
2022/09/20 05:51:51;;;;;;;;;4.40;4.40;;;;;13.57;54.24;101785.66;4996585;28;46506;-59
2022/09/20 05:54:43;;;;;;;;;5.00;3.20;;;;;13.61;53.77;101785.03;4979739;28;45400;-59
2022/09/20 05:57:23;;;;;;;;;5.60;3.20;;;;;13.65;53.74;101788.22;4981917;28;45409;-61
2022/09/20 06:00:31;;;;;;;;;4.40;3.00;;;;;13.69;54.02;101784.88;4980041;28;45390;-58
2022/09/20 06:03:12;;;;;;;;;7.60;4.60;;;;;13.75;53.88;101783.19;4993618;28;45568;-59
2022/09/20 06:06:00;;;;;;;;;4.00;4.00;;;;;13.58;53.68;101746.84;4996811;28;45315;-59
2022/09/20 06:08:32;;;;;;;;;4.20;4.20;;;;;13.67;54.01;101775.94;4979037;28;45332;-57
2022/09/20 06:11:15;;;;;;;;;4.60;4.00;;;;;13.78;53.63;101796.53;4997302;28;45214;-59
2022/09/20 06:14:02;;;;;;;;;4.00;4.00;;;;;13.81;53.69;101792.53;4996337;28;46895;-56
2022/09/20 06:16:37;;;;;;;;;3.80;3.80;;;;;13.88;53.61;101806.34;4982042;28;45277;-59
2022/09/20 06:19:13;;;;;;;;;4.20;4.20;;;;;13.91;53.60;101804.03;4996794;28;45209;-58
2022/09/20 06:21:53;;;;;;;;;4.00;3.00;;;;;13.91;53.76;101809.56;4996847;28;45324;-59
2022/09/20 06:24:44;;;;;;;;;4.40;4.40;;;;;13.96;53.31;101815.31;4996587;28;46339;-59
2022/09/20 06:27:12;;;;;;;;;3.60;2.80;;;;;13.94;54.27;101806.34;4963810;28;45612;-60
2022/09/20 06:29:40;;;;;;;;;3.40;3.40;;;;;13.88;53.85;101809.13;5013047;28;45465;-59
2022/09/20 06:32:07;;;;;;;;;3.00;3.00;;;;;13.92;54.01;101804.84;4988784;28;45611;-60
2022/09/20 06:34:32;;;;;;;;;4.00;3.40;;;;;13.79;53.76;101778.97;4972749;28;46514;-60
2022/09/20 06:43:09;;;;;;;;;7.40;5.00;;;;;13.99;53.24;101771.78;4980994;28;45309;-60
2022/09/20 06:45:36;;;;;;;;;7.00;6.00;;;;;14.25;53.08;101814.28;4982721;28;50248;-58
2022/09/20 06:48:01;;;;;;;;;3.80;3.80;;;;;14.22;53.68;101816.41;5017818;28;45504;-59
2022/09/20 06:50:27;;;;;;;;;4.00;4.00;;;;;14.07;52.93;101785.38;5014828;28;45469;-61
2022/09/20 06:52:53;;;;;;;;;5.00;5.00;;;;;14.34;53.20;101819.41;5014759;28;45340;-59
2022/09/20 06:55:21;;;;;;;;;5.40;5.40;;;;;14.36;52.82;101827.47;5014538;28;46036;-61
2022/09/20 06:57:47;;;;;;;;;6.60;5.00;;;;;14.18;53.08;101792.16;5014188;28;45368;-60
2022/09/20 07:00:14;;;;;;;;;6.50;5.00;;;;;14.21;53.18;101798.13;5013790;28;45333;-60
2022/09/20 07:02:43;;;;;;;;;6.80;5.80;;;;;14.32;53.28;101815.13;5014628;28;45414;-60
2022/09/20 07:05:15;;;;;;;;;6.20;4.80;;;;;14.36;53.30;101824.72;5014119;28;45511;-60
2022/09/20 07:07:42;;;;;;;;;8.00;7.20;;;;;14.31;53.04;101818.97;4996725;28;45572;-61
2022/09/20 07:10:09;;;;;;;;;6.00;5.80;;;;;14.26;53.47;101813.22;5014505;28;45475;-62
2022/09/20 07:12:35;;;;;;;;;5.00;4.40;;;;;14.29;53.24;101815.56;5027296;28;45551;-61
2022/09/20 07:15:01;;;;;;;;;6.75;4.50;;;;;14.29;53.23;101819.16;5034437;28;45473;-60
2022/09/20 07:17:26;;;;;;;;;4.75;4.75;;;;;14.34;53.31;101832.34;5016022;28;45944;-60
2022/09/20 07:19:52;;;;;;;;;7.25;6.00;;;;;14.31;53.47;101830.00;5034096;28;45307;-60
2022/09/20 07:22:17;;;;;;;;;5.25;4.75;;;;;14.30;52.91;101826.38;5034564;28;46021;-60
2022/09/20 07:24:43;;;;;;;;;7.50;5.75;;;;;14.32;53.11;101832.56;5031942;28;46070;-61
2022/09/20 07:27:10;;;;;;;;;4.60;4.40;;;;;14.30;52.79;101839.38;5033921;28;45331;-60
2022/09/20 07:29:35;;;;;;;;;6.00;4.20;;;;;14.26;53.29;101832.53;5034537;28;45732;-58
2022/09/20 07:32:01;;;;;;;;;5.25;5.00;;;;;14.00;53.33;101804.69;5016496;28;45558;-61
2022/09/20 07:34:26;;;;;;;;;6.00;6.00;;;;;14.16;53.31;101850.38;5034027;28;47219;-54
2022/09/20 07:36:53;;;;;;;;;6.00;6.00;;;;;14.13;53.82;101845.25;4987198;28;45882;-57
2022/09/20 07:39:19;;;;;;;;;3.00;3.00;;;;;14.08;53.30;101848.66;4993905;28;45533;-61
2022/09/20 07:41:47;;;;;;;;;7.00;5.50;;;;;14.06;53.67;101845.25;5010739;28;45766;-61
2022/09/20 07:44:26;;;;;;;;;8.60;7.00;;;;;14.12;53.83;101864.78;5014688;28;47639;-59
2022/09/20 07:46:54;;;;;;;;;5.80;5.80;;;;;14.04;53.89;101850.13;5003024;28;45949;-63
2022/09/20 07:49:20;;;;;;;;;8.00;6.60;;;;;14.01;53.71;101858.84;5015177;28;45813;-59
2022/09/20 07:51:46;;;;;;;;;7.00;6.40;;;;;14.06;53.61;101855.44;4983358;28;45772;-58
2022/09/20 07:54:12;;;;;;;;;5.00;5.00;;;;;14.02;53.72;101854.13;5013306;28;46346;-58
2022/09/20 07:56:38;;;;;;;;;6.75;5.25;;;;;14.11;53.79;101863.94;4995641;28;45348;-56
2022/09/20 07:59:03;;;;;;;;;7.00;6.00;;;;;14.16;53.62;101864.19;5014761;28;45731;-59
2022/09/20 08:01:29;;;;;;;;;7.50;6.25;;;;;14.13;53.34;101861.00;5013465;28;45665;-60
2022/09/20 08:03:56;;;;;;;;;7.75;5.00;;;;;14.00;53.95;101856.28;5023982;28;45840;-60
2022/09/20 08:06:22;;;;;;;;;7.20;5.00;;;;;14.14;53.43;101871.81;5016346;28;45916;-59
2022/09/20 08:08:48;;;;;;;;;4.75;4.75;;;;;14.18;53.68;101870.34;5013938;28;45367;-60
2022/09/20 08:11:19;;;;;;;;;5.20;5.20;;;;;14.19;53.86;101869.28;5015249;28;45631;-59
2022/09/20 08:13:49;;;;;;;;;6.40;5.00;;;;;14.20;53.48;101862.69;5014454;28;46246;-60
2022/09/20 08:16:15;;;;;;;;;5.20;5.20;;;;;14.36;52.94;101877.19;5008715;28;45434;-60
2022/09/20 08:18:48;;;;;;;;;6.60;6.40;;;;;14.35;53.21;101881.84;5034580;28;45332;-61
2022/09/20 08:21:13;;;;;;;;;8.60;6.20;;;;;14.40;53.67;101875.69;5014951;28;45611;-59
2022/09/20 08:23:40;;;;;;;;;8.00;8.00;;;;;14.48;53.54;101882.94;5033185;28;45589;-59
2022/09/20 08:26:07;;;;;;;;;4.40;4.40;;;;;14.39;52.86;101856.56;5015274;28;45827;-59
2022/09/20 08:28:33;;;;;;;;;5.80;5.80;;;;;14.39;53.01;101860.19;5031680;28;45363;-60
2022/09/20 08:31:20;;;;;;;;;4.75;3.75;;;;;14.57;53.02;101881.66;5033580;28;45357;-60
2022/09/20 08:33:46;;;;;;;;;5.60;3.80;;;;;14.55;52.41;101875.50;5032831;28;46116;-61
2022/09/20 08:36:13;;;;;;;;;3.50;3.50;;;;;14.62;52.59;101881.03;5014895;28;45537;-61
2022/09/20 08:38:38;;;;;;;;;5.00;5.00;;;;;14.61;52.87;101882.06;5015419;28;45822;-60
2022/09/20 08:41:18;;;;;;;;;2.00;2.00;;;;;14.60;52.71;101884.00;5031156;28;45477;-59
2022/09/20 08:43:53;;;;;;;;;5.40;4.00;;;;;14.41;52.67;101840.66;5032996;28;46264;-60
2022/09/20 08:46:26;;;;;;;;;7.40;5.00;;;;;14.76;52.97;101888.31;5033069;28;45809;-59
2022/09/20 08:48:51;;;;;;;;;6.60;5.40;;;;;14.57;52.28;101861.47;4999515;28;45424;-59
2022/09/20 08:51:18;;;;;;;;;5.50;5.00;;;;;14.77;52.81;101895.53;5004407;28;45382;-59
2022/09/20 08:53:46;;;;;;;;;3.80;3.80;;;;;14.75;52.43;101902.31;5014964;28;46544;-59
2022/09/20 08:56:11;;;;;;;;;3.00;3.00;;;;;14.73;52.56;101898.91;5032820;28;45368;-59
2022/09/20 08:58:38;;;;;;;;;4.50;4.50;;;;;14.84;52.89;101911.25;5016058;28;45473;-59
2022/09/20 09:01:04;;;;;;;;;5.00;3.60;;;;;14.85;52.76;101901.91;5018892;28;45691;-60
2022/09/20 09:03:30;;;;;;;;;3.00;3.00;;;;;14.92;52.77;101905.50;5034201;28;45820;-60
2022/09/20 09:05:57;;;;;;;;;6.00;5.60;;;;;14.99;52.15;101903.59;5018563;28;45575;-59
2022/09/20 09:08:25;;;;;;;;;8.80;6.40;;;;;15.06;52.51;101902.75;5036251;28;45405;-59
2022/09/20 09:11:08;;;;;;;;;25.20;23.00;;;;;15.12;52.42;101901.88;5002288;28;45444;-58
2022/09/20 09:13:51;;;;;;;;;6.80;4.00;;;;;15.10;52.53;101890.22;4997743;28;48096;-58
2022/09/20 09:16:18;;;;;;;;;4.60;3.60;;;;;14.97;51.92;101867.03;5001542;28;45439;-58
2022/09/20 09:18:44;;;;;;;;;7.80;4.00;;;;;15.24;52.00;101907.59;5009188;28;45419;-58
2022/09/20 09:21:24;;;;;;;;;6.00;5.80;;;;;15.25;51.74;101895.47;4997469;28;45802;-56
2022/09/20 09:24:10;;;;;;;;;5.00;4.00;;;;;15.35;51.23;101909.72;4981625;28;45689;-60
2022/09/20 09:26:37;;;;;;;;;4.00;4.00;;;;;15.32;51.18;101894.41;4983087;28;45724;-58
2022/09/20 09:29:22;;;;;;;;;2.80;2.80;;;;;15.42;51.63;101901.44;5008752;28;45655;-60
2022/09/20 09:31:50;;;;;;;;;5.00;4.60;;;;;15.36;51.70;101878.22;5003748;28;45390;-55
2022/09/20 09:34:29;;;;;;;;;6.00;3.60;;;;;15.48;51.78;101899.72;5015185;28;45473;-58
2022/09/20 09:36:56;;;;;;;;;5.80;4.00;;;;;15.50;51.22;101892.88;4981149;28;45383;-57
2022/09/20 09:39:36;;;;;;;;;5.20;3.60;;;;;15.62;51.38;101903.28;4998238;28;45770;-59
2022/09/20 09:42:18;;;;;;;;;9.00;4.80;;;;;15.50;50.69;101876.28;5033738;28;45416;-59
2022/09/20 09:44:49;;;;;;;;;6.00;3.60;;;;;15.72;50.68;101899.00;5035411;28;45463;-59
2022/09/20 09:47:40;;;;;;;;;2.40;2.00;;;;;15.72;50.63;101900.91;5006684;28;46624;-59
2022/09/20 09:50:11;;;;;;;;;3.40;3.40;;;;;15.75;50.47;101889.41;4970724;28;45617;-61
2022/09/20 09:52:36;;;;;;;;;4.00;3.00;;;;;15.58;50.65;101866.88;4958713;28;45378;-61
2022/09/20 09:55:02;;;;;;;;;5.25;5.25;;;;;15.75;50.56;101894.09;4996180;28;45526;-60
2022/09/20 09:57:31;;;;;;;;;3.25;3.25;;;;;15.82;50.17;101897.66;5013361;28;45854;-61
2022/09/20 10:00:10;;;;;;;;;4.20;3.80;;;;;15.89;49.90;101890.19;5031266;28;45495;-61
2022/09/20 10:03:12;;;;;;;;;7.20;4.20;;;;;15.83;50.07;101882.75;5013674;28;45531;-56
2022/09/20 10:05:55;;;;;;;;;3.60;1.80;;;;;16.03;50.00;101893.78;5027948;28;45500;-61
2022/09/20 10:08:39;;;;;;;;;8.20;5.80;;;;;16.02;49.63;101886.56;5022078;28;45435;-59
2022/09/20 10:11:09;;;;;;;;;6.20;5.20;;;;;16.15;50.05;101893.06;5031669;28;45330;-59
2022/09/20 10:14:02;;;;;;;;;9.20;7.80;;;;;16.21;49.05;101887.50;5031790;28;45519;-57
2022/09/20 10:16:55;;;;;;;;;5.40;4.60;;;;;16.22;49.13;101886.44;5026336;28;46905;-58
2022/09/20 10:19:49;;;;;;;;;7.80;6.20;;;;;16.23;48.14;101893.66;5014112;28;45407;-55
2022/09/20 10:22:39;;;;;;;;;2.00;2.00;;;;;16.22;47.52;101891.13;4997388;28;45720;-58
2022/09/20 10:25:38;;;;;;;;;5.60;5.00;;;;;16.24;47.52;101888.97;4983584;28;45541;-59
2022/09/20 10:28:22;;;;;;;;;4.40;4.00;;;;;16.28;47.49;101876.41;4997134;28;46791;-59
2022/09/20 10:31:03;;;;;;;;;3.00;3.00;;;;;16.33;47.42;101884.88;4995472;28;45395;-60
2022/09/20 10:33:36;;;;;;;;;5.80;5.20;;;;;16.29;47.20;101871.69;4999965;28;45545;-58
2022/09/20 10:36:37;;;;;;;;;7.00;5.40;;;;;16.37;47.18;101879.72;5014608;28;45487;-65
2022/09/20 10:39:09;;;;;;;;;7.20;4.80;;;;;16.47;46.85;101870.91;4955193;28;45733;-61
2022/09/20 10:45:04;;;;;;;;;5.00;4.00;;;;;16.52;46.73;101882.19;4980245;28;45928;-63
2022/09/20 10:47:34;;;;;;;;;3.00;3.00;;;;;16.64;46.29;101874.00;4994862;28;45848;-68
2022/09/20 10:50:05;;;;;;;;;4.00;4.00;;;;;16.58;46.03;101852.72;4980532;28;48470;-63
2022/09/20 10:52:56;;;;;;;;;3.20;2.00;;;;;16.81;45.90;101874.28;4974000;28;45538;-66
2022/09/20 10:55:24;;;;;;;;;4.60;1.80;;;;;16.87;45.37;101872.53;4996877;28;45392;-66
2022/09/20 10:58:03;;;;;;;;;4.80;3.00;;;;;16.62;45.66;101823.50;5004247;28;45471;-64
2022/09/20 11:00:34;;;;;;;;;5.80;3.40;;;;;16.89;45.69;101868.47;5014756;28;45487;-66
2022/09/20 11:03:12;;;;;;;;;4.60;4.60;;;;;16.80;45.71;101840.19;5014726;28;45279;-63
2022/09/20 11:06:01;;;;;;;;;3.20;3.00;;;;;17.01;45.67;101867.69;4994939;28;45422;-65
2022/09/20 11:08:28;;;;;;;;;4.00;3.00;;;;;17.11;45.47;101865.31;4981235;28;45413;-66
2022/09/20 11:10:57;;;;;;;;;4.60;4.20;;;;;17.22;44.96;101863.69;4962246;28;48255;-64
2022/09/20 11:14:07;;;;;;;;;2.20;1.20;;;;;17.26;45.03;101866.84;4978523;28;45563;-68
2022/09/20 11:16:37;;;;;;;;;3.00;3.00;;;;;17.17;44.27;101830.25;4985408;28;45411;-67
2022/09/20 11:19:12;;;;;;;;;3.20;3.00;;;;;17.45;44.13;101862.19;4996177;28;45469;-62
2022/09/20 11:21:51;;;;;;;;;3.80;2.60;;;;;16.92;44.46;101757.09;4977434;28;46131;-69
2022/09/20 11:24:23;;;;;;;;;3.80;3.00;;;;;17.67;43.04;101861.69;4995750;28;45296;-63
2022/09/20 11:26:53;;;;;;;;;5.20;3.00;;;;;17.86;43.93;101863.38;4995637;28;45406;-63
2022/09/20 11:29:32;;;;;;;;;5.00;3.80;;;;;18.04;43.15;101863.56;4996046;28;45350;-61
2022/09/20 11:32:26;;;;;;;;;4.40;4.00;;;;;18.26;43.16;101856.41;4962038;28;46102;-68
2022/09/20 11:34:54;;;;;;;;;3.20;2.00;;;;;18.20;42.20;101818.47;4995301;28;45500;-62
2022/09/20 11:37:20;;;;;;;;;4.00;3.80;;;;;18.53;41.93;101856.00;4977885;28;45451;-67
2022/09/20 11:39:49;;;;;;;;;2.60;2.00;;;;;18.69;41.38;101853.63;4962095;28;45344;-64
2022/09/20 11:42:20;;;;;;;;;3.20;2.80;;;;;18.79;41.30;101858.59;4977604;28;45676;-69
2022/09/20 11:44:45;;;;;;;;;4.00;2.60;;;;;18.90;40.31;101845.78;4977665;28;45533;-64
2022/09/20 11:47:20;;;;;;;;;6.00;3.00;;;;;19.08;40.34;101850.41;4946126;28;45524;-61
2022/09/20 11:49:56;;;;;;;;;2.80;2.80;;;;;19.14;40.63;101846.66;4999489;28;45536;-64
2022/09/20 11:52:39;;;;;;;;;3.40;2.80;;;;;18.73;40.76;101779.75;4971641;28;45863;-62
2022/09/20 11:55:16;;;;;;;;;4.20;4.00;;;;;18.45;41.00;101747.97;4993578;28;45804;-63
2022/09/20 11:57:42;;;;;;;;;5.00;3.00;;;;;18.80;40.86;101833.31;4992609;28;45468;-66
2022/09/20 12:00:09;;;;;;;;;3.75;3.50;;;;;18.76;41.20;101847.94;4993438;28;45903;-68
2022/09/20 12:02:41;;;;;;;;;4.00;4.00;;;;;18.59;41.26;101842.25;4997173;28;45892;-64
2022/09/20 12:05:06;;;;;;;;;3.00;3.00;;;;;18.52;41.53;101850.72;5030559;28;45897;-63
2022/09/20 12:07:40;;;;;;;;;3.75;3.75;;;;;18.48;41.99;101852.25;4996113;28;45465;-60
2022/09/20 12:10:19;;;;;;;;;5.40;4.40;;;;;18.42;41.91;101849.34;4988413;28;45518;-52
2022/09/20 12:12:46;;;;;;;;;4.20;3.20;;;;;18.36;42.21;101843.91;4974960;28;45861;-61
2022/09/20 12:15:20;;;;;;;;;5.20;4.00;;;;;18.33;42.53;101847.13;5007279;28;45383;-64
2022/09/20 12:17:45;;;;;;;;;4.00;4.00;;;;;18.28;42.56;101845.94;5030838;28;45840;-66